Time;durP1;ratioP1;P1;durP2;ratioP2;P2;SDS_P1;SDS_P2;PMS_P1;PMS_P2;Temp;Humidity;BMP_temperature;BMP_pressure;BME280_temperature;BME280_humidity;BME280_pressure;Samples;Min_cycle;Max_cycle;Signal;HPM_P1;HPM_P2
2023/10/23 00:01:38;;;;;;;1.10;1.10;;;7.90;99.90;;;;;;5074897;28;20074;-67
2023/10/23 00:04:04;;;;;;;1.23;1.13;;;7.90;99.90;;;;;;5074812;28;20086;-68
2023/10/23 00:06:29;;;;;;;1.20;1.10;;;7.90;99.90;;;;;;5074588;28;20040;-68
2023/10/23 00:08:55;;;;;;;1.40;1.30;;;7.80;99.90;;;;;;5074753;28;20094;-68
2023/10/23 00:11:22;;;;;;;1.40;1.17;;;7.80;99.90;;;;;;5074481;28;20055;-68
2023/10/23 00:13:48;;;;;;;0.88;0.88;;;7.80;99.90;;;;;;5074702;28;20044;-68
2023/10/23 00:16:13;;;;;;;1.00;1.00;;;7.80;99.90;;;;;;5074723;28;20040;-68
2023/10/23 00:18:39;;;;;;;2.97;1.48;;;7.70;99.90;;;;;;5074620;28;20123;-68
2023/10/23 00:21:04;;;;;;;1.08;1.00;;;7.70;99.90;;;;;;5074500;28;20036;-68
2023/10/23 00:23:30;;;;;;;1.30;1.20;;;7.70;99.90;;;;;;5074447;28;20044;-67
2023/10/23 00:25:55;;;;;;;1.15;1.10;;;7.70;99.90;;;;;;5074441;28;20117;-67
2023/10/23 00:28:21;;;;;;;1.10;1.10;;;7.70;99.90;;;;;;5074322;28;20032;-68
2023/10/23 00:30:47;;;;;;;1.02;0.98;;;7.70;99.90;;;;;;5074326;28;20033;-68
2023/10/23 00:33:12;;;;;;;1.00;1.00;;;7.70;99.90;;;;;;5074314;28;20048;-68
2023/10/23 00:35:39;;;;;;;1.05;1.00;;;7.70;99.90;;;;;;5074205;28;20455;-68
2023/10/23 00:38:05;;;;;;;1.20;1.10;;;7.70;99.90;;;;;;5073967;28;20091;-68
2023/10/23 00:40:31;;;;;;;1.15;1.05;;;7.70;99.90;;;;;;5072627;28;20033;-68
2023/10/23 00:42:56;;;;;;;1.73;1.40;;;7.70;99.90;;;;;;5073649;28;20052;-68
2023/10/23 00:45:22;;;;;;;2.47;1.27;;;7.70;99.90;;;;;;5073723;28;20400;-69
2023/10/23 00:47:48;;;;;;;1.20;1.10;;;7.60;99.90;;;;;;5074081;28;20072;-68
2023/10/23 00:50:14;;;;;;;1.23;1.13;;;7.70;99.90;;;;;;5073993;28;20047;-68
2023/10/23 00:52:41;;;;;;;1.42;1.20;;;7.60;99.90;;;;;;5073824;28;20037;-68
2023/10/23 00:55:06;;;;;;;1.10;1.10;;;7.60;99.90;;;;;;5073898;28;20441;-68
2023/10/23 00:57:32;;;;;;;1.30;1.08;;;7.60;99.90;;;;;;5055846;28;20115;-68
2023/10/23 00:59:59;;;;;;;1.17;1.08;;;7.60;99.90;;;;;;5073795;28;20048;-67
2023/10/23 01:02:25;;;;;;;0.90;0.90;;;7.60;99.90;;;;;;5073417;28;20519;-67
2023/10/23 01:04:51;;;;;;;0.90;0.90;;;7.60;99.90;;;;;;5072723;28;20037;-67
2023/10/23 01:07:17;;;;;;;1.40;1.30;;;7.60;99.90;;;;;;5073714;28;20040;-68
2023/10/23 01:09:42;;;;;;;1.50;0.95;;;7.60;99.90;;;;;;5073590;28;20434;-68
2023/10/23 01:12:08;;;;;;;1.23;1.13;;;7.50;99.90;;;;;;5073611;28;20036;-68
2023/10/23 01:14:33;;;;;;;1.17;1.05;;;7.50;99.90;;;;;;5073342;28;20044;-68
2023/10/23 01:16:59;;;;;;;1.60;1.35;;;7.50;99.90;;;;;;5073391;28;20036;-66
2023/10/23 01:19:25;;;;;;;1.52;1.20;;;7.50;99.90;;;;;;5073479;28;20032;-65
2023/10/23 01:21:50;;;;;;;1.48;1.38;;;7.50;99.90;;;;;;5073499;28;20039;-66
2023/10/23 01:24:18;;;;;;;1.30;1.20;;;7.40;99.90;;;;;;5073307;28;20032;-65
2023/10/23 01:26:44;;;;;;;1.50;1.20;;;7.40;99.90;;;;;;5073393;28;20541;-66
2023/10/23 01:29:09;;;;;;;1.25;1.15;;;7.40;99.90;;;;;;5073111;28;20030;-65
2023/10/23 01:31:35;;;;;;;1.42;1.20;;;7.40;99.90;;;;;;5073334;28;20037;-65
2023/10/23 01:34:00;;;;;;;1.60;1.50;;;7.40;99.90;;;;;;5073232;28;20474;-65
2023/10/23 01:36:26;;;;;;;1.30;1.20;;;8.30;99.90;;;;;;5072912;28;20041;-65
2023/10/23 01:38:52;;;;;;;1.45;1.35;;;7.40;99.90;;;;;;5073305;28;20033;-65
2023/10/23 01:41:17;;;;;;;1.25;1.15;;;7.30;99.90;;;;;;5072997;28;20074;-65
2023/10/23 01:43:43;;;;;;;1.50;1.40;;;7.30;99.90;;;;;;5073052;28;20639;-65
2023/10/23 01:46:09;;;;;;;1.40;1.30;;;7.30;99.90;;;;;;5073149;28;20041;-65
2023/10/23 01:48:34;;;;;;;1.42;1.20;;;7.30;99.90;;;;;;5072834;28;20071;-66
2023/10/23 01:51:01;;;;;;;1.33;1.23;;;7.30;99.90;;;;;;5073118;28;20158;-66
2023/10/23 01:53:27;;;;;;;1.40;1.30;;;7.30;99.90;;;;;;5072772;28;20058;-65
2023/10/23 01:55:52;;;;;;;1.63;1.30;;;7.60;99.90;;;;;;5073030;28;20119;-65
2023/10/23 01:58:18;;;;;;;2.60;1.35;;;7.30;99.90;;;;;;5073138;28;20464;-66
2023/10/23 02:00:43;;;;;;;1.10;1.00;;;7.30;99.90;;;;;;5072740;28;20085;-65
2023/10/23 02:03:09;;;;;;;1.40;1.30;;;7.30;99.90;;;;;;5072897;28;20396;-65
2023/10/23 02:05:35;;;;;;;1.27;1.17;;;7.20;99.90;;;;;;5072937;28;20063;-65
2023/10/23 02:08:00;;;;;;;1.20;1.10;;;7.20;99.90;;;;;;5072962;28;20549;-66
2023/10/23 02:10:26;;;;;;;1.50;1.40;;;7.20;99.90;;;;;;5072840;28;20028;-69
2023/10/23 02:12:51;;;;;;;1.10;1.08;;;7.20;99.90;;;;;;5072905;28;20098;-65
2023/10/23 02:15:17;;;;;;;2.08;1.27;;;7.20;99.90;;;;;;5072395;28;20048;-65
2023/10/23 02:17:43;;;;;;;1.25;1.15;;;7.20;99.90;;;;;;5076913;28;20052;-65
2023/10/23 02:20:09;;;;;;;1.55;1.20;;;7.30;99.90;;;;;;5076887;28;20041;-65
2023/10/23 02:22:35;;;;;;;1.25;1.20;;;7.20;99.90;;;;;;5076379;28;20055;-65
2023/10/23 02:25:01;;;;;;;1.83;1.40;;;7.20;99.90;;;;;;5076454;28;20036;-65
2023/10/23 02:27:26;;;;;;;1.70;1.60;;;7.20;99.90;;;;;;5076527;28;20032;-66
2023/10/23 02:29:52;;;;;;;1.30;1.20;;;7.20;99.90;;;;;;5076651;28;20093;-65
2023/10/23 02:32:18;;;;;;;1.30;1.20;;;7.20;99.90;;;;;;5075138;28;20111;-66
2023/10/23 02:34:43;;;;;;;1.38;1.23;;;7.10;99.90;;;;;;5076492;28;20071;-65
2023/10/23 02:37:09;;;;;;;1.38;1.27;;;7.10;99.90;;;;;;5076290;28;20397;-65
2023/10/23 02:39:35;;;;;;;1.38;1.27;;;7.10;99.90;;;;;;5076222;28;20032;-65
2023/10/23 02:42:01;;;;;;;2.10;1.35;;;7.10;99.90;;;;;;5076188;28;20102;-65
2023/10/23 02:44:27;;;;;;;1.10;1.00;;;7.00;99.90;;;;;;5076276;28;20045;-65
2023/10/23 02:46:52;;;;;;;1.45;1.23;;;7.80;99.90;;;;;;5074826;28;20055;-65
2023/10/23 02:49:18;;;;;;;1.05;1.05;;;7.00;99.90;;;;;;5075885;28;20059;-65
2023/10/23 02:51:44;;;;;;;2.60;1.30;;;7.00;99.90;;;;;;5076162;28;20040;-65
2023/10/23 02:54:10;;;;;;;1.30;1.20;;;7.00;99.90;;;;;;5076269;28;20102;-65
2023/10/23 02:56:36;;;;;;;1.30;1.00;;;7.00;99.90;;;;;;5074829;28;20044;-65
2023/10/23 02:59:02;;;;;;;1.50;1.40;;;7.00;99.90;;;;;;5076143;28;20044;-65
2023/10/23 03:01:28;;;;;;;1.13;1.08;;;7.00;99.90;;;;;;5076073;28;20135;-65
2023/10/23 03:03:53;;;;;;;1.95;1.00;;;6.90;99.90;;;;;;5075940;28;20058;-65
2023/10/23 03:06:19;;;;;;;1.48;1.38;;;6.90;99.90;;;;;;5076017;28;20040;-65
2023/10/23 03:08:44;;;;;;;1.50;1.40;;;6.90;99.90;;;;;;5074452;28;20044;-65
2023/10/23 03:11:10;;;;;;;1.48;1.38;;;6.80;99.90;;;;;;5075888;28;20071;-65
2023/10/23 03:13:36;;;;;;;1.25;1.15;;;6.80;99.90;;;;;;5075836;28;20502;-65
2023/10/23 03:16:02;;;;;;;1.25;1.15;;;6.80;99.90;;;;;;5075805;28;20487;-65
2023/10/23 03:18:28;;;;;;;1.35;1.25;;;6.80;99.90;;;;;;5075463;28;20044;-65
2023/10/23 03:20:59;;;;;;;1.30;1.20;;;6.80;99.90;;;;;;5075794;28;20056;-65
2023/10/23 03:23:24;;;;;;;1.65;1.42;;;6.80;99.90;;;;;;5075610;28;20037;-65
2023/10/23 03:25:50;;;;;;;1.13;1.10;;;6.80;99.90;;;;;;5075612;28;20037;-65
2023/10/23 03:28:15;;;;;;;1.50;1.40;;;6.80;99.90;;;;;;5074467;28;20041;-65
2023/10/23 03:30:41;;;;;;;1.50;1.33;;;6.80;99.90;;;;;;5075551;28;20036;-65
2023/10/23 03:33:07;;;;;;;1.90;1.40;;;6.80;99.90;;;;;;5075280;28;20048;-66
2023/10/23 03:35:34;;;;;;;2.15;1.58;;;6.80;99.90;;;;;;5075424;28;20051;-66
2023/10/23 03:38:00;;;;;;;1.95;1.40;;;6.80;99.90;;;;;;5075613;28;20045;-67
2023/10/23 03:40:25;;;;;;;2.58;1.50;;;6.80;99.90;;;;;;5074116;28;20056;-68
2023/10/23 03:42:52;;;;;;;1.50;1.40;;;6.90;99.90;;;;;;5074829;28;20052;-68
2023/10/23 03:45:17;;;;;;;1.70;1.20;;;7.40;99.90;;;;;;5075018;28;20373;-67
2023/10/23 03:47:43;;;;;;;1.75;1.65;;;6.90;99.90;;;;;;5075169;28;20047;-67
2023/10/23 03:50:08;;;;;;;1.33;1.20;;;7.00;99.90;;;;;;5074866;28;20040;-68
2023/10/23 03:52:34;;;;;;;1.50;1.40;;;6.90;99.90;;;;;;5074800;28;20040;-67
2023/10/23 03:55:00;;;;;;;1.52;1.30;;;7.00;99.90;;;;;;5075101;28;20025;-68
2023/10/23 03:57:25;;;;;;;1.52;1.15;;;6.90;99.90;;;;;;5075021;28;20039;-68
2023/10/23 03:59:51;;;;;;;2.08;1.40;;;6.90;99.90;;;;;;5074948;28;20481;-68
2023/10/23 04:02:16;;;;;;;1.30;1.20;;;6.90;99.90;;;;;;5074639;28;20040;-68
2023/10/23 04:04:42;;;;;;;1.70;1.58;;;6.90;99.90;;;;;;5074722;28;20045;-68
2023/10/23 04:07:07;;;;;;;1.35;1.25;;;6.90;99.90;;;;;;5074847;28;20111;-68
2023/10/23 04:09:33;;;;;;;1.45;1.30;;;6.90;99.90;;;;;;5074835;28;20409;-68
2023/10/23 04:11:58;;;;;;;2.28;1.30;;;6.90;99.90;;;;;;5074537;28;20040;-68
2023/10/23 04:14:24;;;;;;;1.98;1.67;;;6.90;99.90;;;;;;5074706;28;20036;-68
2023/10/23 04:16:50;;;;;;;1.27;1.17;;;6.90;99.90;;;;;;5074691;28;20499;-69
2023/10/23 04:19:16;;;;;;;2.00;1.80;;;7.00;99.90;;;;;;5074753;28;20098;-68
2023/10/23 04:21:41;;;;;;;1.63;1.52;;;7.50;99.90;;;;;;5074214;28;20048;-68
2023/10/23 04:24:11;;;;;;;1.77;1.67;;;7.00;99.90;;;;;;5074120;28;20450;-67
2023/10/23 04:26:36;;;;;;;1.90;1.67;;;7.00;99.90;;;;;;5074425;28;20043;-68
2023/10/23 04:29:02;;;;;;;1.60;1.50;;;7.00;99.90;;;;;;5074121;28;20119;-67
2023/10/23 04:31:28;;;;;;;1.60;1.50;;;7.00;99.90;;;;;;5074334;28;20029;-67
2023/10/23 04:33:53;;;;;;;1.70;1.60;;;6.90;99.90;;;;;;5074013;28;20488;-68
2023/10/23 04:36:19;;;;;;;1.90;1.50;;;6.90;99.90;;;;;;5074255;28;20083;-68
2023/10/23 04:38:44;;;;;;;1.83;1.60;;;6.90;99.90;;;;;;5074165;28;20044;-68
2023/10/23 04:41:10;;;;;;;1.67;1.58;;;6.90;99.90;;;;;;5073962;28;20052;-67
2023/10/23 04:43:36;;;;;;;1.88;1.77;;;6.90;99.90;;;;;;5074000;28;20041;-68
2023/10/23 04:46:01;;;;;;;1.75;1.65;;;6.90;99.90;;;;;;5074027;28;20119;-68
2023/10/23 04:48:27;;;;;;;1.73;1.63;;;6.90;99.90;;;;;;5074098;28;20040;-68
2023/10/23 04:50:58;;;;;;;1.70;1.60;;;6.90;99.90;;;;;;5073956;28;20129;-68
2023/10/23 04:53:24;;;;;;;;;;;6.90;99.90;;;;;;5074351;28;20050;-68
2023/10/23 04:55:49;;;;;;;1.70;1.60;;;6.80;99.90;;;;;;5072598;28;19916;-68
2023/10/23 04:58:15;;;;;;;1.50;1.40;;;6.80;99.90;;;;;;5073840;28;20032;-68
2023/10/23 05:00:40;;;;;;;3.42;1.85;;;6.80;99.90;;;;;;5073477;28;20041;-68
2023/10/23 05:03:07;;;;;;;1.63;1.52;;;6.80;99.90;;;;;;5073713;28;20040;-68
2023/10/23 05:05:33;;;;;;;1.70;1.60;;;6.80;99.90;;;;;;5073775;28;20033;-68
2023/10/23 05:07:59;;;;;;;1.73;1.63;;;6.70;99.90;;;;;;5073439;28;20586;-68
2023/10/23 05:10:25;;;;;;;2.13;1.80;;;6.70;99.90;;;;;;5073239;28;20032;-68
2023/10/23 05:12:50;;;;;;;1.67;1.58;;;6.70;99.90;;;;;;5073558;28;20169;-68
2023/10/23 05:15:17;;;;;;;1.63;1.45;;;6.70;99.90;;;;;;5073586;28;20036;-68
2023/10/23 05:17:43;;;;;;;1.67;1.58;;;6.70;99.90;;;;;;5073260;28;20089;-68
2023/10/23 05:20:09;;;;;;;1.50;1.40;;;6.70;99.90;;;;;;5073454;28;20047;-68
2023/10/23 05:22:35;;;;;;;2.00;1.70;;;6.60;99.90;;;;;;5073274;28;20032;-68
2023/10/23 05:25:01;;;;;;;1.60;1.50;;;6.60;99.90;;;;;;5073381;28;20032;-67
2023/10/23 05:27:26;;;;;;;1.80;1.70;;;6.60;99.90;;;;;;5073057;28;20036;-68
2023/10/23 05:29:52;;;;;;;1.95;1.75;;;6.60;99.90;;;;;;5073461;28;20036;-67
2023/10/23 05:32:18;;;;;;;1.67;1.58;;;6.90;99.90;;;;;;5073392;28;20064;-68
2023/10/23 05:34:46;;;;;;;1.50;1.40;;;6.50;99.90;;;;;;5073287;28;20446;-67
2023/10/23 05:37:12;;;;;;;2.33;1.90;;;6.40;99.90;;;;;;5072001;28;20055;-67
2023/10/23 05:39:38;;;;;;;1.92;1.70;;;6.40;99.90;;;;;;5073224;28;20037;-72
2023/10/23 05:42:04;;;;;;;1.42;1.33;;;6.40;99.90;;;;;;5071672;28;20060;-66
2023/10/23 05:44:30;;;;;;;2.30;2.10;;;6.30;99.90;;;;;;5073148;28;20404;-71
2023/10/23 05:46:56;;;;;;;1.50;1.40;;;6.30;99.90;;;;;;5073152;28;20028;-67
2023/10/23 05:49:21;;;;;;;1.90;1.80;;;6.30;99.90;;;;;;5071423;28;20040;-67
2023/10/23 05:51:47;;;;;;;1.35;1.27;;;6.20;99.90;;;;;;5071314;28;20039;-67
2023/10/23 05:54:14;;;;;;;1.35;1.25;;;6.20;99.90;;;;;;5073106;28;20114;-67
2023/10/23 05:56:40;;;;;;;1.48;1.38;;;6.20;99.90;;;;;;5071559;28;20055;-68
2023/10/23 05:59:05;;;;;;;1.58;1.48;;;6.10;99.90;;;;;;5073416;28;20036;-66
2023/10/23 06:01:34;;;;;;;1.30;1.20;;;6.10;99.90;;;;;;5073107;28;20500;-67
2023/10/23 06:04:00;;;;;;;1.92;1.67;;;6.10;99.90;;;;;;5072960;28;20040;-66
2023/10/23 06:06:26;;;;;;;1.60;1.50;;;6.10;99.90;;;;;;5072972;28;20032;-66
2023/10/23 06:08:52;;;;;;;2.28;1.73;;;6.20;99.90;;;;;;5072941;28;20117;-67
2023/10/23 06:11:17;;;;;;;1.67;1.52;;;6.10;99.90;;;;;;5072714;28;20069;-66
2023/10/23 06:13:43;;;;;;;1.60;1.50;;;6.10;99.90;;;;;;5072893;28;20044;-66
2023/10/23 06:16:08;;;;;;;1.52;1.42;;;6.10;99.90;;;;;;5072892;28;20036;-66
2023/10/23 06:18:35;;;;;;;1.70;1.60;;;6.10;99.90;;;;;;5072814;28;20040;-65
2023/10/23 06:21:05;;;;;;;1.58;1.48;;;6.10;99.90;;;;;;5054760;28;20053;-65
2023/10/23 06:23:36;;;;;;;2.22;1.48;;;6.10;99.90;;;;;;5072810;28;20480;-65
2023/10/23 06:26:03;;;;;;;1.77;1.58;;;6.10;99.90;;;;;;5071276;28;20399;-65
2023/10/23 06:28:29;;;;;;;1.80;1.70;;;6.00;99.90;;;;;;5072715;28;20036;-65
2023/10/23 06:30:55;;;;;;;1.38;1.27;;;6.10;99.90;;;;;;5072689;28;20043;-65
2023/10/23 06:33:20;;;;;;;1.60;1.50;;;6.00;99.90;;;;;;5072590;28;20067;-66
2023/10/23 06:35:55;;;;;;;1.83;1.73;;;6.00;99.90;;;;;;5071733;28;20052;-66
2023/10/23 06:38:20;;;;;;;2.05;1.85;;;6.00;99.90;;;;;;5072655;28;20115;-64
2023/10/23 06:40:46;;;;;;;1.55;1.45;;;6.00;99.90;;;;;;5072458;28;20535;-66
2023/10/23 06:43:12;;;;;;;1.98;1.85;;;6.50;99.90;;;;;;5072524;28;20132;-66
2023/10/23 06:45:37;;;;;;;2.25;1.70;;;6.00;99.90;;;;;;5070990;28;20094;-66
2023/10/23 06:48:03;;;;;;;1.60;1.50;;;6.00;99.90;;;;;;5072506;28;20055;-73
2023/10/23 06:50:29;;;;;;;1.70;1.60;;;6.10;99.90;;;;;;5072148;28;20040;-70
2023/10/23 06:52:54;;;;;;;1.60;1.50;;;6.10;99.90;;;;;;5072360;28;20161;-65
2023/10/23 06:55:20;;;;;;;2.38;2.00;;;6.10;99.90;;;;;;5072354;28;20041;-66
2023/10/23 06:57:45;;;;;;;1.48;1.38;;;6.10;99.90;;;;;;5072097;28;20544;-65
2023/10/23 07:00:11;;;;;;;1.88;1.67;;;6.10;99.90;;;;;;5072325;28;20051;-65
2023/10/23 07:02:37;;;;;;;1.70;1.60;;;6.10;99.90;;;;;;5073841;28;20047;-64
2023/10/23 07:05:04;;;;;;;2.55;1.85;;;6.10;99.90;;;;;;5076068;28;20447;-65
2023/10/23 07:07:29;;;;;;;2.08;1.90;;;6.20;99.90;;;;;;5074467;28;20033;-65
2023/10/23 07:09:58;;;;;;;2.70;2.45;;;6.20;99.90;;;;;;5075758;28;20059;-66
2023/10/23 07:12:24;;;;;;;1.67;1.58;;;6.20;99.90;;;;;;5074377;28;20079;-69
2023/10/23 07:14:50;;;;;;;2.08;1.88;;;6.20;99.90;;;;;;5075864;28;20036;-66
2023/10/23 07:17:16;;;;;;;1.95;1.75;;;6.20;99.90;;;;;;5075524;28;20553;-66
2023/10/23 07:19:42;;;;;;;1.80;1.70;;;6.30;99.90;;;;;;5075549;28;20115;-66
2023/10/23 07:22:07;;;;;;;1.90;1.80;;;6.40;99.90;;;;;;5075791;28;20036;-67
2023/10/23 07:24:33;;;;;;;2.10;1.55;;;6.40;99.90;;;;;;5075578;28;20040;-66
2023/10/23 07:26:59;;;;;;;2.03;1.73;;;6.40;99.90;;;;;;5075630;28;20066;-66
2023/10/23 07:29:25;;;;;;;1.73;1.63;;;6.50;99.90;;;;;;5075618;28;20036;-66
2023/10/23 07:31:50;;;;;;;1.60;1.50;;;6.50;99.90;;;;;;5075542;28;20063;-66
2023/10/23 07:34:16;;;;;;;2.42;2.05;;;6.60;99.90;;;;;;5075589;28;20051;-67
2023/10/23 07:36:41;;;;;;;1.80;1.70;;;6.60;99.90;;;;;;5073971;28;20044;-66
2023/10/23 07:39:08;;;;;;;1.42;1.33;;;6.70;99.90;;;;;;5075444;28;20079;-66
2023/10/23 07:41:33;;;;;;;5.93;2.20;;;6.80;99.90;;;;;;5073703;28;20054;-66
2023/10/23 07:43:59;;;;;;;2.13;1.92;;;6.90;99.90;;;;;;5075276;28;20048;-66
2023/10/23 07:46:25;;;;;;;1.95;1.80;;;7.00;99.90;;;;;;5075166;28;20488;-66
2023/10/23 07:48:50;;;;;;;2.20;2.00;;;7.10;99.90;;;;;;5075337;28;20040;-66
2023/10/23 07:51:16;;;;;;;2.05;1.92;;;7.20;99.90;;;;;;5075266;28;20377;-66
2023/10/23 07:53:42;;;;;;;2.15;2.00;;;7.30;99.90;;;;;;5075154;28;20041;-67
2023/10/23 07:56:07;;;;;;;2.20;2.00;;;7.50;99.90;;;;;;5073619;28;20435;-67
2023/10/23 07:58:34;;;;;;;2.00;1.80;;;7.60;99.90;;;;;;5075096;28;20043;-66
2023/10/23 08:01:04;;;;;;;2.03;1.90;;;7.70;99.90;;;;;;5075055;28;20040;-67
2023/10/23 08:03:30;;;;;;;2.33;2.15;;;7.80;99.90;;;;;;5074871;28;20051;-66
2023/10/23 08:05:55;;;;;;;2.22;2.10;;;7.90;99.90;;;;;;5074952;28;20029;-66
2023/10/23 08:08:21;;;;;;;2.33;2.13;;;8.00;99.90;;;;;;5074598;28;20028;-66
2023/10/23 08:10:47;;;;;;;2.22;2.03;;;8.10;99.90;;;;;;5074521;28;20039;-66
2023/10/23 08:13:13;;;;;;;2.20;2.00;;;8.20;99.90;;;;;;5072995;28;20041;-66
2023/10/23 08:15:40;;;;;;;2.33;2.00;;;8.20;99.90;;;;;;5074721;28;20531;-66
2023/10/23 08:18:06;;;;;;;2.15;2.03;;;8.30;99.90;;;;;;5073203;28;20083;-66
2023/10/23 08:20:35;;;;;;;2.13;1.92;;;8.40;99.90;;;;;;5073186;28;20072;-66
2023/10/23 08:23:00;;;;;;;3.42;2.40;;;8.50;99.90;;;;;;5074533;28;20147;-66
2023/10/23 08:25:26;;;;;;;2.00;1.90;;;8.60;99.90;;;;;;5074287;28;20525;-66
2023/10/23 08:27:52;;;;;;;3.00;2.22;;;8.60;99.90;;;;;;5073002;28;20400;-66
2023/10/23 08:30:17;;;;;;;1.90;1.80;;;8.70;99.90;;;;;;5074469;28;20028;-66
2023/10/23 08:32:43;;;;;;;2.25;2.08;;;8.80;99.90;;;;;;5074400;28;20094;-66
2023/10/23 08:35:09;;;;;;;2.55;2.35;;;8.80;99.90;;;;;;5073097;28;20041;-66
2023/10/23 08:37:34;;;;;;;4.30;2.88;;;8.90;99.90;;;;;;5074235;28;20036;-66
2023/10/23 08:40:00;;;;;;;2.05;1.95;;;9.00;99.90;;;;;;5073871;28;20562;-67
2023/10/23 08:42:27;;;;;;;2.60;2.40;;;9.00;99.90;;;;;;5073694;28;20048;-66
2023/10/23 08:44:54;;;;;;;2.50;2.30;;;9.00;99.90;;;;;;5074081;28;20071;-66
2023/10/23 08:47:20;;;;;;;2.30;2.13;;;9.10;99.90;;;;;;5074087;28;20119;-66
2023/10/23 08:49:45;;;;;;;2.55;2.35;;;9.20;99.90;;;;;;5074014;28;20433;-66
2023/10/23 08:52:11;;;;;;;2.53;2.33;;;9.20;99.90;;;;;;5074096;28;20028;-66
2023/10/23 08:54:38;;;;;;;2.30;2.13;;;9.20;99.90;;;;;;5073662;28;20078;-66
2023/10/23 08:57:05;;;;;;;2.25;2.05;;;9.30;99.90;;;;;;5073637;28;20040;-66
2023/10/23 08:59:31;;;;;;;2.38;2.17;;;9.40;99.90;;;;;;5073600;28;20041;-64
2023/10/23 09:01:56;;;;;;;2.28;2.15;;;9.40;99.90;;;;;;5073856;28;20446;-65
2023/10/23 09:04:22;;;;;;;1.90;1.80;;;9.50;99.90;;;;;;5073442;28;20132;-65
2023/10/23 09:06:48;;;;;;;2.30;2.10;;;9.60;99.90;;;;;;5073743;28;20037;-65
2023/10/23 09:09:14;;;;;;;2.22;2.00;;;9.60;99.90;;;;;;5073608;28;20040;-65
2023/10/23 09:11:44;;;;;;;2.25;2.05;;;9.70;99.90;;;;;;5073665;28;20032;-65
2023/10/23 09:14:21;;;;;;;2.92;2.08;;;9.70;99.90;;;;;;5073372;28;20089;-65
2023/10/23 09:16:47;;;;;;;2.38;2.17;;;9.80;99.90;;;;;;5073256;28;20109;-65
2023/10/23 09:19:36;;;;;;;2.60;2.40;;;9.80;99.90;;;;;;5073562;28;20117;-66
2023/10/23 09:22:03;;;;;;;2.17;2.08;;;9.80;99.90;;;;;;5073469;28;20040;-66
2023/10/23 09:24:30;;;;;;;2.10;1.95;;;10.00;99.90;;;;;;5072848;28;20137;-65
2023/10/23 09:26:56;;;;;;;3.97;2.15;;;10.20;99.90;;;;;;5073212;28;20036;-65
2023/10/23 09:29:25;;;;;;;2.15;2.00;;;10.10;99.90;;;;;;5073351;28;20138;-67
2023/10/23 09:31:52;;;;;;;2.03;1.83;;;;;;;;;;5073075;28;20041;-67
2023/10/23 09:34:18;;;;;;;1.98;1.88;;;10.20;99.90;;;;;;5073247;28;20047;-67
2023/10/23 09:36:50;;;;;;;1.95;1.85;;;10.30;99.90;;;;;;5071731;28;20472;-68
2023/10/23 09:39:16;;;;;;;2.05;1.92;;;10.30;99.90;;;;;;5073252;28;20080;-72
2023/10/23 09:41:42;;;;;;;2.20;2.00;;;10.40;99.90;;;;;;5071565;28;20062;-66
2023/10/23 09:44:12;;;;;;;2.28;2.08;;;10.40;99.90;;;;;;5088743;28;20066;-66
2023/10/23 09:46:38;;;;;;;2.33;2.15;;;10.40;99.90;;;;;;5072879;28;20037;-66
2023/10/23 09:49:06;;;;;;;2.40;2.20;;;10.40;99.90;;;;;;5072846;28;20040;-66
2023/10/23 09:51:40;;;;;;;2.47;2.28;;;10.40;99.90;;;;;;5073060;28;20387;-66
2023/10/23 09:54:15;;;;;;;2.28;2.08;;;10.50;99.90;;;;;;5072909;28;20041;-67
2023/10/23 09:56:49;;;;;;;2.80;2.60;;;10.60;99.90;;;;;;5072928;28;20114;-67
2023/10/23 09:59:27;;;;;;;1.90;1.80;;;10.60;99.90;;;;;;5072908;28;20048;-67
2023/10/23 10:01:57;;;;;;;3.22;2.25;;;10.70;99.90;;;;;;5072618;28;20075;-67
2023/10/23 10:04:36;;;;;;;2.17;1.98;;;11.50;99.90;;;;;;5072796;28;20044;-67
2023/10/23 10:07:09;;;;;;;3.13;2.45;;;10.70;99.90;;;;;;5072688;28;20052;-67
2023/10/23 10:09:36;;;;;;;2.80;2.50;;;10.80;99.90;;;;;;5072758;28;20051;-66
2023/10/23 10:12:03;;;;;;;2.38;2.17;;;10.70;99.90;;;;;;5071618;28;20036;-65
2023/10/23 10:14:31;;;;;;;2.47;2.28;;;10.80;99.90;;;;;;5071621;28;20091;-66
2023/10/23 10:16:57;;;;;;;2.33;2.13;;;10.80;99.90;;;;;;5072571;28;20045;-66
2023/10/23 10:19:26;;;;;;;2.60;2.40;;;10.80;99.90;;;;;;5072796;28;20395;-66
2023/10/23 10:22:05;;;;;;;2.88;2.67;;;11.60;99.90;;;;;;5072793;28;20041;-66
2023/10/23 10:24:33;;;;;;;2.70;2.50;;;11.10;99.90;;;;;;5072488;28;20424;-66
2023/10/23 10:27:00;;;;;;;2.40;2.20;;;11.10;99.90;;;;;;5054653;28;20377;-66
2023/10/23 10:29:26;;;;;;;2.58;2.38;;;11.10;99.90;;;;;;5072708;28;20113;-66
2023/10/23 10:32:10;;;;;;;2.67;2.47;;;11.20;99.90;;;;;;5072761;28;20068;-66
2023/10/23 10:34:56;;;;;;;2.95;2.53;;;11.10;99.90;;;;;;5072741;28;20040;-69
2023/10/23 10:37:24;;;;;;;2.80;2.60;;;11.90;99.90;;;;;;5074870;28;20131;-66
2023/10/23 10:39:53;;;;;;;2.67;2.47;;;11.10;99.90;;;;;;5076657;28;20052;-70
2023/10/23 10:42:22;;;;;;;2.75;2.55;;;11.00;99.90;;;;;;5076118;28;20416;-65
2023/10/23 10:45:17;;;;;;;2.70;2.50;;;11.10;99.90;;;;;;5074835;28;20045;-66
2023/10/23 10:47:44;;;;;;;3.25;3.00;;;11.10;99.90;;;;;;5075437;28;20109;-67
2023/10/23 10:50:10;;;;;;;2.58;2.38;;;11.10;99.90;;;;;;5076486;28;20080;-66
2023/10/23 10:52:37;;;;;;;2.13;1.98;;;11.10;99.90;;;;;;5076275;28;20108;-66
2023/10/23 10:55:09;;;;;;;2.30;2.20;;;11.00;99.90;;;;;;5076245;28;20119;-66
2023/10/23 10:57:43;;;;;;;2.00;1.90;;;11.00;99.90;;;;;;5076195;28;20055;-66
2023/10/23 11:00:09;;;;;;;1.85;1.75;;;11.00;99.90;;;;;;5074703;28;20047;-66
2023/10/23 11:02:36;;;;;;;1.80;1.70;;;11.10;99.90;;;;;;5075927;28;20047;-66
2023/10/23 11:05:11;;;;;;;2.25;2.05;;;11.10;99.90;;;;;;5075683;28;20558;-66
2023/10/23 11:07:37;;;;;;;2.08;1.73;;;11.10;99.90;;;;;;5075964;28;20530;-70
2023/10/23 11:10:04;;;;;;;2.10;2.00;;;11.20;99.90;;;;;;5074460;28;20076;-68
2023/10/23 11:12:30;;;;;;;1.80;1.70;;;11.10;99.90;;;;;;5075704;28;20135;-66
2023/10/23 11:14:56;;;;;;;1.88;1.77;;;11.10;99.90;;;;;;5075880;28;20048;-65
2023/10/23 11:17:23;;;;;;;2.25;2.08;;;11.10;99.90;;;;;;5075646;28;20492;-74
2023/10/23 11:19:49;;;;;;;2.25;2.05;;;11.10;99.90;;;;;;5075618;28;20048;-66
2023/10/23 11:22:16;;;;;;;3.33;1.83;;;11.00;99.90;;;;;;5075708;28;20044;-66
2023/10/23 11:24:42;;;;;;;1.80;1.70;;;11.00;99.90;;;;;;5074073;28;20051;-66
2023/10/23 11:27:08;;;;;;;2.13;1.92;;;11.00;99.90;;;;;;5075664;28;20116;-65
2023/10/23 11:29:44;;;;;;;2.00;1.90;;;11.10;99.90;;;;;;5075639;28;20116;-65
2023/10/23 11:32:12;;;;;;;2.00;1.90;;;11.00;99.90;;;;;;5075589;28;20048;-65
2023/10/23 11:34:38;;;;;;;1.92;1.83;;;10.90;99.90;;;;;;5075528;28;20049;-65
2023/10/23 11:37:05;;;;;;;1.23;1.17;;;10.90;99.90;;;;;;5075461;28;20041;-65
2023/10/23 11:39:31;;;;;;;1.90;1.80;;;10.80;99.90;;;;;;5075444;28;20045;-65
2023/10/23 11:41:58;;;;;;;1.45;1.35;;;10.80;99.90;;;;;;5075093;28;20052;-65
2023/10/23 11:44:25;;;;;;;1.90;1.70;;;10.80;99.90;;;;;;5075021;28;20127;-65
2023/10/23 11:46:51;;;;;;;2.28;2.08;;;10.80;99.90;;;;;;5075328;28;20082;-65
2023/10/23 11:49:22;;;;;;;2.05;1.85;;;10.70;99.90;;;;;;5074573;28;20119;-65
2023/10/23 11:51:48;;;;;;;1.73;1.63;;;10.70;99.90;;;;;;5074928;28;20377;-65
2023/10/23 11:54:15;;;;;;;2.13;1.92;;;10.80;99.90;;;;;;5074829;28;20153;-66
2023/10/23 11:56:42;;;;;;;2.17;1.98;;;10.70;99.90;;;;;;5075136;28;20053;-65
2023/10/23 11:59:08;;;;;;;2.05;1.95;;;10.90;99.90;;;;;;5075157;28;20385;-65
2023/10/23 12:01:34;;;;;;;2.08;1.90;;;10.80;99.90;;;;;;5075014;28;20048;-64
2023/10/23 12:03:59;;;;;;;2.25;2.05;;;10.90;99.90;;;;;;5074860;28;20041;-64
2023/10/23 12:06:25;;;;;;;2.17;2.05;;;10.90;99.90;;;;;;5074546;28;20028;-65
2023/10/23 12:08:50;;;;;;;2.00;1.90;;;10.90;99.90;;;;;;5074883;28;20036;-66
2023/10/23 12:11:17;;;;;;;2.28;2.15;;;10.90;99.90;;;;;;5074915;28;20515;-65
2023/10/23 12:13:43;;;;;;;2.00;1.90;;;11.20;99.90;;;;;;5074756;28;20076;-65
2023/10/23 12:16:09;;;;;;;2.42;2.22;;;10.80;99.90;;;;;;5074439;28;20068;-65
2023/10/23 12:18:35;;;;;;;2.10;2.00;;;10.80;99.90;;;;;;5074341;28;20036;-65
2023/10/23 12:21:01;;;;;;;2.45;2.25;;;10.90;99.90;;;;;;5074377;28;20048;-64
2023/10/23 12:23:27;;;;;;;2.63;2.10;;;10.90;99.90;;;;;;5074226;28;20094;-64
2023/10/23 12:25:52;;;;;;;2.53;2.33;;;11.30;99.90;;;;;;5074510;28;20068;-65
2023/10/23 12:28:18;;;;;;;2.58;2.38;;;11.00;99.90;;;;;;5074403;28;20438;-64
2023/10/23 12:30:44;;;;;;;2.15;1.95;;;11.00;99.90;;;;;;5074473;28;20055;-65
2023/10/23 12:33:09;;;;;;;2.72;2.53;;;10.90;99.90;;;;;;5074287;28;20044;-65
2023/10/23 12:35:35;;;;;;;3.33;2.67;;;10.90;99.90;;;;;;5074285;28;20499;-69
2023/10/23 12:38:00;;;;;;;2.88;2.67;;;10.90;99.90;;;;;;5072781;28;20067;-64
2023/10/23 12:40:26;;;;;;;2.58;2.38;;;10.90;99.90;;;;;;5074223;28;20036;-65
2023/10/23 12:42:52;;;;;;;3.00;2.80;;;11.00;99.90;;;;;;5073712;28;20060;-64
2023/10/23 12:45:17;;;;;;;2.50;2.30;;;11.30;99.90;;;;;;5073863;28;20128;-64
2023/10/23 12:47:43;;;;;;;2.90;2.60;;;11.30;99.90;;;;;;5074044;28;20043;-65
2023/10/23 12:50:09;;;;;;;2.72;2.53;;;11.10;99.90;;;;;;5055905;28;20115;-64
2023/10/23 12:52:34;;;;;;;2.58;2.38;;;11.20;99.90;;;;;;5074005;28;20499;-64